createdAt,value
2023-01-06T00:00:23.271Z,74157.50
2023-01-06T00:01:05.003Z,74155.50
2023-01-06T00:01:37.283Z,74159.47
2023-01-06T00:02:12.226Z,74159.47
2023-01-06T00:02:45.481Z,74155.50
2023-01-06T00:03:17.720Z,74153.50
2023-01-06T00:03:54.013Z,74161.47
2023-01-06T00:04:26.296Z,74159.47
2023-01-06T00:04:58.593Z,74153.50
2023-01-06T00:05:33.523Z,74159.47
2023-01-06T00:06:08.363Z,74155.50
2023-01-06T00:06:43.218Z,74159.47
2023-01-06T00:07:15.565Z,74163.47
2023-01-06T00:07:49.492Z,74155.50
2023-01-06T00:08:24.305Z,74159.47
2023-01-06T00:08:57.538Z,74167.47
2023-01-06T00:09:29.754Z,74163.47
2023-01-06T00:10:04.648Z,74167.47
2023-01-06T00:10:37.109Z,74159.47
2023-01-06T00:11:11.293Z,74163.47
2023-01-06T00:11:46.138Z,74163.47
2023-01-06T00:12:18.382Z,74155.50
2023-01-06T00:12:50.822Z,74157.50
2023-01-06T00:13:26.366Z,74159.47
2023-01-06T00:14:01.302Z,74155.50
2023-01-06T00:14:36.190Z,74159.47
2023-01-06T00:15:09.236Z,74159.47
2023-01-06T00:15:41.472Z,74159.47
2023-01-06T00:16:18.928Z,74159.47
2023-01-06T00:16:51.294Z,74155.50
2023-01-06T00:17:23.557Z,74159.47
2023-01-06T00:17:58.380Z,74153.50
2023-01-06T00:18:30.646Z,74151.50
2023-01-06T00:19:02.902Z,74155.50
2023-01-06T00:19:37.742Z,74153.50
2023-01-06T00:20:12.021Z,74151.50
2023-01-06T00:20:44.300Z,74151.50
2023-01-06T00:21:19.215Z,74147.50
2023-01-06T00:21:51.457Z,74151.50
2023-01-06T00:22:23.686Z,74151.50
2023-01-06T00:22:58.502Z,74151.50
2023-01-06T00:23:31.153Z,74147.50
2023-01-06T00:24:03.445Z,74151.50
2023-01-06T00:24:38.334Z,74147.50
2023-01-06T00:25:11.204Z,74145.50
2023-01-06T00:25:52.402Z,74147.50
2023-01-06T00:26:25.110Z,74139.53
2023-01-06T00:26:59.968Z,74145.50
2023-01-06T00:27:32.572Z,74143.50
2023-01-06T00:28:04.902Z,74143.50
2023-01-06T00:28:40.991Z,74139.53
2023-01-06T00:29:15.819Z,74141.50
2023-01-06T00:29:49.692Z,74139.53
2023-01-06T00:30:25.439Z,74137.53
2023-01-06T00:30:57.917Z,74141.50
2023-01-06T00:31:32.844Z,74137.53
2023-01-06T00:32:05.654Z,74139.53
2023-01-06T00:32:37.888Z,74141.50
2023-01-06T00:33:12.878Z,74137.53
2023-01-06T00:33:46.651Z,74143.50
2023-01-06T00:34:18.974Z,74137.53
2023-01-06T00:34:53.799Z,74141.50
2023-01-06T00:35:26.092Z,74143.50
2023-01-06T00:35:59.611Z,74139.53
2023-01-06T00:36:34.463Z,74139.53
2023-01-06T00:37:07.815Z,74143.50
2023-01-06T00:37:40.093Z,74135.53
2023-01-06T00:38:15.211Z,74143.50
2023-01-06T00:38:49.291Z,74145.50
2023-01-06T00:39:24.312Z,74147.50
2023-01-06T00:39:56.564Z,74147.50
2023-01-06T00:40:28.799Z,74143.50
2023-01-06T00:41:26.461Z,74145.50
2023-01-06T00:42:04.668Z,74143.50
2023-01-06T00:42:36.956Z,74143.50
2023-01-06T00:43:12.253Z,74143.50
2023-01-06T00:43:44.487Z,74143.50
2023-01-06T00:44:19.345Z,74143.50
2023-01-06T00:44:55.215Z,74143.50
2023-01-06T00:45:27.494Z,74143.50
2023-01-06T00:46:02.060Z,74139.53
2023-01-06T00:46:37.384Z,74141.50
2023-01-06T00:47:11.128Z,74143.50
2023-01-06T00:47:46.181Z,74143.50
2023-01-06T00:48:18.455Z,74139.53
2023-01-06T00:49:04.207Z,74141.50
2023-01-06T00:49:41.628Z,74143.50
2023-01-06T00:50:13.904Z,74135.53
2023-01-06T00:50:46.128Z,74139.53
2023-01-06T00:51:20.969Z,74135.53
2023-01-06T00:51:54.954Z,74137.53
2023-01-06T00:52:29.819Z,74141.50
2023-01-06T00:53:02.241Z,74135.53
2023-01-06T00:53:34.507Z,74143.50
2023-01-06T00:54:10.194Z,74143.50
2023-01-06T00:54:43.244Z,74147.50
2023-01-06T00:55:18.235Z,74143.50
2023-01-06T00:55:50.478Z,74135.53
2023-01-06T00:56:22.720Z,74137.53
2023-01-06T00:56:58.081Z,74143.50
2023-01-06T00:57:30.344Z,74145.50
2023-01-06T00:58:05.176Z,74143.50
2023-01-06T00:58:37.431Z,74141.50
2023-01-06T00:59:10.508Z,74143.50
2023-01-06T00:59:47.928Z,74141.50
2023-01-06T01:00:20.699Z,74139.53
2023-01-06T01:00:53.294Z,74143.50
2023-01-06T01:01:28.274Z,74143.50
2023-01-06T01:02:00.707Z,74139.53
2023-01-06T01:02:36.014Z,74139.53
2023-01-06T01:03:08.354Z,74135.53
2023-01-06T01:03:40.736Z,74139.53
2023-01-06T01:04:16.088Z,74143.50
2023-01-06T01:04:48.350Z,74143.50
2023-01-06T01:05:24.308Z,74143.50
2023-01-06T01:05:59.724Z,74139.53
2023-01-06T01:06:33.184Z,74135.53
2023-01-06T01:07:08.308Z,74139.53
2023-01-06T01:07:41.262Z,74139.53
2023-01-06T01:08:13.503Z,74143.50
2023-01-06T01:08:47.278Z,74139.53
2023-01-06T01:09:24.464Z,74139.53
2023-01-06T01:09:56.704Z,74135.53
2023-01-06T01:10:28.950Z,74135.53
2023-01-06T01:11:06.431Z,74137.53
2023-01-06T01:11:53.702Z,74135.53
2023-01-06T01:12:25.988Z,74135.53
2023-01-06T01:13:00.849Z,74135.53
2023-01-06T01:13:33.440Z,74129.53
2023-01-06T01:14:05.719Z,74135.53
2023-01-06T01:14:49.783Z,74131.53
2023-01-06T01:15:22.620Z,74131.53
2023-01-06T01:15:57.876Z,74131.53
2023-01-06T01:16:30.286Z,74127.53
2023-01-06T01:17:02.958Z,74131.53
2023-01-06T01:17:37.839Z,74131.53
2023-01-06T01:18:10.078Z,74131.53
2023-01-06T01:18:42.331Z,74135.53
2023-01-06T01:19:17.403Z,74129.53
2023-01-06T01:19:52.499Z,74133.53
2023-01-06T01:20:27.331Z,74131.53
2023-01-06T01:20:59.570Z,74127.53
2023-01-06T01:21:32.184Z,74135.53
2023-01-06T01:22:07.492Z,74135.53
2023-01-06T01:22:42.223Z,74131.53
2023-01-06T01:23:14.538Z,74135.53
2023-01-06T01:23:46.819Z,74131.53
2023-01-06T01:24:21.992Z,74133.53
2023-01-06T01:24:54.780Z,74135.53
2023-01-06T01:25:29.647Z,74135.53
2023-01-06T01:26:01.891Z,74131.53
2023-01-06T01:26:34.147Z,74139.53
2023-01-06T01:27:09.436Z,74135.53
2023-01-06T01:27:41.741Z,74135.53
2023-01-06T01:28:13.985Z,74133.53
2023-01-06T01:28:48.857Z,74139.53
2023-01-06T01:29:21.150Z,74131.53
2023-01-06T01:30:00.580Z,74139.53
2023-01-06T01:30:32.876Z,74139.53
2023-01-06T01:31:05.210Z,74135.53
2023-01-06T01:31:40.106Z,74137.53
2023-01-06T01:32:12.333Z,74135.53
2023-01-06T01:32:47.186Z,74139.53
2023-01-06T01:33:19.435Z,74135.53
2023-01-06T01:33:51.738Z,74135.53
2023-01-06T01:34:29.581Z,74133.53
2023-01-06T01:35:01.974Z,74137.53
2023-01-06T01:35:34.229Z,74135.53
2023-01-06T01:36:07.294Z,74135.53
2023-01-06T01:36:43.246Z,74131.53
2023-01-06T01:37:16.229Z,74131.53
2023-01-06T01:37:51.097Z,74131.53
2023-01-06T01:38:23.376Z,74131.53
2023-01-06T01:38:56.338Z,74131.53
2023-01-06T01:39:32.223Z,74127.53
2023-01-06T01:40:06.071Z,74127.53
2023-01-06T01:40:38.297Z,74127.53
2023-01-06T01:41:17.167Z,74127.53
2023-01-06T01:41:49.918Z,74131.53
2023-01-06T01:42:24.755Z,74131.53
2023-01-06T01:42:57.977Z,74127.53
2023-01-06T01:43:44.226Z,74131.53
2023-01-06T01:44:54.879Z,74129.53
2023-01-06T01:45:30.208Z,74129.53
2023-01-06T01:46:06.049Z,74127.53
2023-01-06T01:46:40.195Z,74127.53
2023-01-06T01:47:17.767Z,74129.53
2023-01-06T01:47:52.699Z,74127.53
2023-01-06T01:48:30.727Z,74133.53
2023-01-06T01:49:05.716Z,74131.53
2023-01-06T01:49:40.175Z,74133.53
2023-01-06T01:50:26.044Z,74135.53
2023-01-06T01:50:59.252Z,74129.53
2023-01-06T01:51:35.353Z,74129.53
2023-01-06T01:52:11.118Z,74133.53
2023-01-06T01:52:44.730Z,74129.53
2023-01-06T01:53:22.598Z,74133.53
2023-01-06T01:53:57.681Z,74133.53
2023-01-06T01:54:31.250Z,74133.53
2023-01-06T01:55:07.195Z,74133.53
2023-01-06T01:55:40.326Z,74131.53
2023-01-06T01:56:17.689Z,74133.53
2023-01-06T01:56:56.312Z,74135.53
2023-01-06T01:57:33.153Z,74127.53
2023-01-06T01:58:11.023Z,74131.53
2023-01-06T01:58:46.359Z,74129.53
2023-01-06T01:59:21.471Z,74127.53
2023-01-06T01:59:56.738Z,74127.53
2023-01-06T02:00:31.580Z,74123.53
2023-01-06T02:01:06.627Z,74127.53
2023-01-06T02:01:39.031Z,74127.53
2023-01-06T02:02:11.596Z,74127.53
2023-01-06T02:02:46.602Z,74127.53
2023-01-06T02:03:20.062Z,74119.56
2023-01-06T02:03:52.960Z,74125.53
2023-01-06T02:04:29.238Z,74117.56
2023-01-06T02:05:03.864Z,74125.53
2023-01-06T02:05:41.914Z,74123.53
2023-01-06T02:06:16.450Z,74121.56
2023-01-06T02:06:50.699Z,74119.56
2023-01-06T02:07:25.668Z,74123.53
2023-01-06T02:08:01.794Z,74123.53
2023-01-06T02:08:35.894Z,74123.53
2023-01-06T02:09:14.022Z,74119.56
2023-01-06T02:09:53.896Z,74123.53
2023-01-06T02:10:26.212Z,74119.56
2023-01-06T02:11:01.157Z,74125.53
2023-01-06T02:11:34.799Z,74119.56
2023-01-06T02:12:07.415Z,74119.56
2023-01-06T02:12:42.690Z,74123.53
2023-01-06T02:13:15.057Z,74123.53
2023-01-06T02:13:48.319Z,74121.56
2023-01-06T02:14:26.236Z,74123.53
2023-01-06T02:14:58.756Z,74123.53
2023-01-06T02:15:37.337Z,74123.53
2023-01-06T02:16:17.147Z,74125.53
2023-01-06T02:16:58.533Z,74125.53
2023-01-06T02:18:09.665Z,74119.56
2023-01-06T02:18:51.042Z,74119.56
2023-01-06T02:19:47.486Z,74117.56
2023-01-06T02:20:57.552Z,74119.56
2023-01-06T02:21:41.449Z,74115.56
2023-01-06T02:22:26.123Z,74115.56
2023-01-06T02:23:18.199Z,74115.56
2023-01-06T02:24:25.915Z,74115.56
2023-01-06T02:25:22.428Z,74115.56
2023-01-06T02:26:41.815Z,74111.56
2023-01-06T02:27:43.191Z,74107.56
2023-01-06T02:28:47.898Z,74109.56
2023-01-06T02:29:54.969Z,74107.56
2023-01-06T02:30:52.589Z,74107.56
2023-01-06T02:31:39.394Z,74109.56
2023-01-06T02:32:33.578Z,74105.56
2023-01-06T02:33:13.500Z,74105.56
2023-01-06T02:33:50.193Z,74107.56
2023-01-06T02:34:30.120Z,74103.56
2023-01-06T02:35:17.309Z,74101.59
2023-01-06T02:36:12.055Z,74103.56
2023-01-06T02:36:52.348Z,74101.59
2023-01-06T02:37:33.155Z,74101.59
2023-01-06T02:38:16.739Z,74099.59
2023-01-06T02:39:02.605Z,74101.59
2023-01-06T02:39:46.196Z,74095.59
2023-01-06T02:40:32.358Z,74099.59
2023-01-06T02:41:13.075Z,74097.59
2023-01-06T02:41:55.768Z,74099.59
2023-01-06T02:42:34.808Z,74091.59
2023-01-06T02:43:14.803Z,74103.56
2023-01-06T02:43:55.464Z,74095.59
2023-01-06T02:44:31.242Z,74095.59
2023-01-06T02:45:12.245Z,74095.59
2023-01-06T02:45:52.354Z,74091.59
2023-01-06T02:46:49.875Z,74087.59
2023-01-06T02:47:30.784Z,74085.59
2023-01-06T02:48:13.165Z,74085.59
2023-01-06T02:48:51.580Z,74083.63
2023-01-06T02:49:28.719Z,74083.63
2023-01-06T02:50:12.953Z,74083.63
2023-01-06T02:50:50.169Z,74083.63
2023-01-06T02:51:26.743Z,74081.63
2023-01-06T02:52:05.945Z,74077.63
2023-01-06T02:52:56.060Z,74079.63
2023-01-06T02:53:33.198Z,74081.63
2023-01-06T02:54:14.208Z,74079.63
2023-01-06T02:54:52.907Z,74083.63
2023-01-06T02:55:31.304Z,74083.63
2023-01-06T02:56:03.847Z,74083.63
2023-01-06T02:56:39.846Z,74085.59
2023-01-06T02:57:18.106Z,74089.59
2023-01-06T02:57:53.798Z,74087.59
2023-01-06T02:58:30.100Z,74087.59
2023-01-06T02:59:07.963Z,74087.59
2023-01-06T02:59:46.120Z,74091.59
2023-01-06T03:00:22.720Z,74089.59
2023-01-06T03:01:01.949Z,74091.59
2023-01-06T03:01:37.151Z,74095.59
2023-01-06T03:02:12.285Z,74095.59
2023-01-06T03:02:50.579Z,74095.59
2023-01-06T03:03:24.254Z,74095.59
2023-01-06T03:04:00.370Z,74093.59
2023-01-06T03:04:40.101Z,74095.59
2023-01-06T03:05:16.319Z,74095.59
2023-01-06T03:05:51.569Z,74095.59
2023-01-06T03:06:28.734Z,74099.59
2023-01-06T03:07:03.484Z,74097.59
2023-01-06T03:07:37.343Z,74093.59
2023-01-06T03:08:16.130Z,74091.59
2023-01-06T03:08:49.434Z,74091.59
2023-01-06T03:09:30.806Z,74095.59
2023-01-06T03:10:04.598Z,74095.59
2023-01-06T03:10:39.971Z,74093.59
2023-01-06T03:11:13.635Z,74091.59
2023-01-06T03:11:49.555Z,74085.59
2023-01-06T03:12:30.203Z,74089.59
2023-01-06T03:13:06.686Z,74091.59
2023-01-06T03:13:43.456Z,74085.59
2023-01-06T03:14:24.140Z,74085.59
2023-01-06T03:14:57.194Z,74083.63
2023-01-06T03:15:30.141Z,74083.63
2023-01-06T03:16:05.065Z,74083.63
2023-01-06T03:16:37.370Z,74079.63
2023-01-06T03:17:14.975Z,74083.63
2023-01-06T03:17:47.402Z,74081.63
2023-01-06T03:18:19.960Z,74077.63
2023-01-06T03:18:55.733Z,74075.63
2023-01-06T03:19:31.402Z,74077.63
2023-01-06T03:20:07.300Z,74081.63
2023-01-06T03:20:43.267Z,74075.63
2023-01-06T03:21:18.655Z,74079.63
2023-01-06T03:21:51.612Z,74075.63
2023-01-06T03:22:30.541Z,74077.63
2023-01-06T03:23:02.827Z,74079.63
2023-01-06T03:23:41.105Z,74075.63
2023-01-06T03:24:14.030Z,74071.63
2023-01-06T03:24:47.103Z,74067.63
2023-01-06T03:25:23.445Z,74071.63
2023-01-06T03:25:56.398Z,74073.63
2023-01-06T03:26:31.423Z,74071.63
2023-01-06T03:27:07.599Z,74071.63
2023-01-06T03:27:40.746Z,74067.63
2023-01-06T03:28:13.369Z,74063.66
2023-01-06T03:28:49.220Z,74061.66
2023-01-06T03:29:24.584Z,74065.66
2023-01-06T03:29:56.879Z,74057.66
2023-01-06T03:30:42.620Z,74059.66
2023-01-06T03:31:18.929Z,74051.66
2023-01-06T03:32:00.785Z,74059.66
2023-01-06T03:32:44.979Z,74059.66
2023-01-06T03:33:23.165Z,74055.66
2023-01-06T03:34:01.939Z,74055.66
2023-01-06T03:35:08.376Z,74051.66
2023-01-06T03:35:48.730Z,74055.66
2023-01-06T03:36:30.228Z,74051.66
2023-01-06T03:37:08.643Z,74051.66
2023-01-06T03:37:47.692Z,74057.66
2023-01-06T03:38:33.956Z,74059.66
2023-01-06T03:39:09.541Z,74055.66
2023-01-06T03:39:50.903Z,74059.66
2023-01-06T03:40:34.379Z,74061.66
2023-01-06T03:41:18.555Z,74063.66
2023-01-06T03:42:09.872Z,74063.66
2023-01-06T03:43:01.747Z,74065.66
2023-01-06T03:43:39.478Z,74065.66
2023-01-06T03:44:15.977Z,74067.63
2023-01-06T03:44:55.278Z,74065.66
2023-01-06T03:45:42.142Z,74067.63
2023-01-06T03:46:25.229Z,74071.63
2023-01-06T03:47:04.558Z,74067.63
2023-01-06T03:47:43.922Z,74067.63
2023-01-06T03:48:25.486Z,74067.63
2023-01-06T03:49:04.922Z,74067.63
2023-01-06T03:49:44.738Z,74067.63
2023-01-06T03:50:19.904Z,74069.63
2023-01-06T03:50:58.578Z,74071.63
2023-01-06T03:51:40.833Z,74071.63
2023-01-06T03:52:21.347Z,74071.63
2023-01-06T03:52:59.099Z,74071.63
2023-01-06T03:53:38.403Z,74071.63
2023-01-06T03:54:18.455Z,74067.63
2023-01-06T03:54:56.618Z,74071.63
2023-01-06T03:55:34.301Z,74073.63
2023-01-06T03:56:13.205Z,74071.63
2023-01-06T03:56:49.392Z,74071.63
2023-01-06T03:57:27.711Z,74067.63
2023-01-06T03:58:01.466Z,74073.63
2023-01-06T03:58:35.439Z,74071.63
2023-01-06T03:59:14.135Z,74067.63
2023-01-06T03:59:49.682Z,74071.63
2023-01-06T04:00:24.433Z,74071.63
2023-01-06T04:01:06.647Z,74075.63
2023-01-06T04:01:39.809Z,74071.63
2023-01-06T04:02:12.681Z,74073.63
2023-01-06T04:02:50.719Z,74073.63
2023-01-06T04:03:27.454Z,74071.63
2023-01-06T04:04:02.005Z,74075.63
2023-01-06T04:04:37.959Z,74077.63
2023-01-06T04:05:13.431Z,74073.63
2023-01-06T04:05:47.196Z,74079.63
2023-01-06T04:06:23.252Z,74077.63
2023-01-06T04:06:56.387Z,74071.63
2023-01-06T04:07:28.625Z,74079.63
2023-01-06T04:08:03.451Z,74071.63
2023-01-06T04:08:35.801Z,74075.63
2023-01-06T04:09:10.831Z,74075.63
2023-01-06T04:09:43.125Z,74077.63
2023-01-06T04:10:17.749Z,74075.63
2023-01-06T04:10:54.925Z,74073.63
2023-01-06T04:11:43.571Z,74075.63
2023-01-06T04:12:30.968Z,74075.63
2023-01-06T04:13:03.442Z,74083.63
2023-01-06T04:13:39.098Z,74075.63
2023-01-06T04:14:11.674Z,74083.63
2023-01-06T04:14:46.881Z,74077.63
2023-01-06T04:15:21.118Z,74079.63
2023-01-06T04:15:54.193Z,74075.63
2023-01-06T04:16:29.300Z,74075.63
2023-01-06T04:17:01.754Z,74077.63
2023-01-06T04:17:34.755Z,74075.63
2023-01-06T04:18:12.217Z,74075.63
2023-01-06T04:18:46.906Z,74075.63
2023-01-06T04:19:19.739Z,74073.63
2023-01-06T04:19:55.147Z,74079.63
2023-01-06T04:20:29.140Z,74073.63
2023-01-06T04:21:13.878Z,74079.63
2023-01-06T04:21:47.899Z,74077.63
2023-01-06T04:22:20.203Z,74075.63
2023-01-06T04:22:56.642Z,74075.63
2023-01-06T04:23:33.108Z,74077.63
2023-01-06T04:24:08.727Z,74075.63
2023-01-06T04:24:44.701Z,74075.63
2023-01-06T04:25:17.203Z,74077.63
2023-01-06T04:25:52.335Z,74075.63
2023-01-06T04:26:36.069Z,74073.63
2023-01-06T04:27:08.294Z,74075.63
2023-01-06T04:27:43.373Z,74073.63
2023-01-06T04:28:16.186Z,74075.63
2023-01-06T04:28:49.565Z,74075.63
2023-01-06T04:29:24.480Z,74079.63
2023-01-06T04:29:59.354Z,74079.63
2023-01-06T04:30:34.182Z,74075.63
2023-01-06T04:31:08.862Z,74075.63
2023-01-06T04:31:41.195Z,74075.63
2023-01-06T04:32:16.084Z,74077.63
2023-01-06T04:32:49.233Z,74073.63
2023-01-06T04:33:24.155Z,74075.63
2023-01-06T04:34:00.919Z,74075.63
2023-01-06T04:34:33.234Z,74075.63
2023-01-06T04:35:06.650Z,74077.63
2023-01-06T04:35:41.562Z,74079.63
2023-01-06T04:36:16.450Z,74079.63
2023-01-06T04:36:53.488Z,74079.63
2023-01-06T04:37:28.595Z,74075.63
2023-01-06T04:38:02.123Z,74079.63
2023-01-06T04:38:34.357Z,74077.63
2023-01-06T04:39:09.383Z,74075.63
2023-01-06T04:39:41.641Z,74079.63
2023-01-06T04:40:16.493Z,74075.63
2023-01-06T04:40:48.715Z,74075.63
2023-01-06T04:41:20.993Z,74077.63
2023-01-06T04:41:55.840Z,74079.63
2023-01-06T04:42:28.104Z,74075.63
2023-01-06T04:43:06.378Z,74075.63
2023-01-06T04:43:41.262Z,74073.63
2023-01-06T04:44:13.500Z,74079.63
2023-01-06T04:44:48.330Z,74075.63
2023-01-06T04:45:20.607Z,74073.63
2023-01-06T04:45:53.010Z,74071.63
2023-01-06T04:46:27.936Z,74071.63
2023-01-06T04:47:00.197Z,74071.63
2023-01-06T04:47:32.936Z,74071.63
2023-01-06T04:48:08.600Z,74071.63
2023-01-06T04:48:43.677Z,74077.63
2023-01-06T04:49:15.942Z,74071.63
2023-01-06T04:49:50.789Z,74071.63
2023-01-06T04:50:23.046Z,74071.63
2023-01-06T04:51:04.271Z,74071.63
2023-01-06T04:51:36.546Z,74071.63
2023-01-06T04:52:11.619Z,74075.63
2023-01-06T04:52:43.843Z,74075.63
2023-01-06T04:53:16.129Z,74075.63
2023-01-06T04:53:50.992Z,74079.63
2023-01-06T04:54:23.210Z,74075.63
2023-01-06T04:54:55.429Z,74075.63
2023-01-06T04:55:30.302Z,74075.63
2023-01-06T04:56:06.757Z,74075.63
2023-01-06T04:56:41.616Z,74075.63
2023-01-06T04:57:13.835Z,74079.63
2023-01-06T04:57:46.065Z,74077.63
2023-01-06T04:58:20.903Z,74079.63
2023-01-06T04:58:55.476Z,74075.63
2023-01-06T04:59:30.343Z,74075.63
2023-01-06T05:00:02.633Z,74075.63
2023-01-06T05:00:34.998Z,74077.63
2023-01-06T05:01:11.812Z,74075.63
2023-01-06T05:01:44.223Z,74075.63
2023-01-06T05:02:17.061Z,74075.63
2023-01-06T05:02:51.919Z,74077.63
2023-01-06T05:03:24.159Z,74079.63
2023-01-06T05:03:59.035Z,74075.63
2023-01-06T05:04:43.384Z,74073.63
2023-01-06T05:05:19.129Z,74073.63
2023-01-06T05:05:51.344Z,74069.63
2023-01-06T05:06:26.236Z,74075.63
2023-01-06T05:06:58.499Z,74071.63
2023-01-06T05:07:30.731Z,74071.63
2023-01-06T05:08:05.546Z,74071.63
2023-01-06T05:08:38.417Z,74067.63
2023-01-06T05:09:10.808Z,74073.63
2023-01-06T05:09:45.660Z,74071.63
2023-01-06T05:10:18.075Z,74073.63
2023-01-06T05:10:50.290Z,74071.63
2023-01-06T05:11:27.309Z,74067.63
2023-01-06T05:11:59.534Z,74069.63
2023-01-06T05:12:31.815Z,74073.63
2023-01-06T05:13:06.699Z,74071.63
2023-01-06T05:13:39.377Z,74071.63
2023-01-06T05:14:14.217Z,74067.63
2023-01-06T05:14:46.504Z,74073.63
2023-01-06T05:15:18.727Z,74075.63
2023-01-06T05:15:53.584Z,74071.63
2023-01-06T05:16:27.297Z,74073.63
2023-01-06T05:16:59.656Z,74075.63
2023-01-06T05:17:34.635Z,74071.63
2023-01-06T05:18:06.912Z,74073.63
2023-01-06T05:18:39.209Z,74073.63
2023-01-06T05:19:16.648Z,74075.63
2023-01-06T05:19:48.889Z,74073.63
2023-01-06T05:20:21.111Z,74075.63
2023-01-06T05:20:57.143Z,74073.63
2023-01-06T05:21:32.466Z,74071.63
2023-01-06T05:22:05.187Z,74075.63
2023-01-06T05:22:40.068Z,74075.63
2023-01-06T05:23:12.301Z,74073.63
2023-01-06T05:23:44.548Z,74077.63
2023-01-06T05:24:19.380Z,74075.63
2023-01-06T05:24:51.640Z,74075.63
2023-01-06T05:25:23.862Z,74071.63
2023-01-06T05:25:58.780Z,74079.63
2023-01-06T05:26:31.068Z,74075.63
2023-01-06T05:27:03.347Z,74077.63
2023-01-06T05:27:38.219Z,74075.63
2023-01-06T05:28:10.456Z,74075.63
2023-01-06T05:28:42.681Z,74079.63
2023-01-06T05:29:19.715Z,74081.63
2023-01-06T05:29:51.947Z,74075.63
2023-01-06T05:30:24.175Z,74079.63
2023-01-06T05:31:02.365Z,74075.63
2023-01-06T05:31:34.612Z,74075.63
2023-01-06T05:32:07.194Z,74073.63
2023-01-06T05:32:42.034Z,74073.63
2023-01-06T05:33:14.503Z,74071.63
2023-01-06T05:33:46.786Z,74075.63
2023-01-06T05:34:24.242Z,74071.63
2023-01-06T05:34:56.502Z,74073.63
2023-01-06T05:35:28.725Z,74073.63
2023-01-06T05:36:04.521Z,74071.63
2023-01-06T05:36:36.891Z,74073.63
2023-01-06T05:37:09.164Z,74075.63
2023-01-06T05:37:44.043Z,74071.63
2023-01-06T05:38:16.270Z,74071.63
2023-01-06T05:38:52.007Z,74071.63
2023-01-06T05:39:27.183Z,74071.63
2023-01-06T05:39:59.415Z,74071.63
2023-01-06T05:40:31.639Z,74071.63
2023-01-06T05:41:06.776Z,74071.63
2023-01-06T05:41:39.007Z,74073.63
2023-01-06T05:42:11.243Z,74071.63
2023-01-06T05:42:46.087Z,74075.63
2023-01-06T05:43:18.315Z,74075.63
2023-01-06T05:43:50.532Z,74075.63
2023-01-06T05:44:25.410Z,74075.63
2023-01-06T05:44:57.659Z,74077.63
2023-01-06T05:45:29.997Z,74079.63
2023-01-06T05:46:08.829Z,74083.63
2023-01-06T05:46:41.131Z,74079.63
2023-01-06T05:47:13.364Z,74089.59
2023-01-06T05:47:48.201Z,74077.63
2023-01-06T05:48:20.939Z,74083.63
2023-01-06T05:48:53.167Z,74083.63
2023-01-06T05:49:30.633Z,74091.59
2023-01-06T05:50:03.437Z,74083.63
2023-01-06T05:50:35.788Z,74083.63
2023-01-06T05:51:12.752Z,74087.59
2023-01-06T05:51:45.017Z,74089.59
2023-01-06T05:52:19.851Z,74083.63
2023-01-06T05:52:52.235Z,74083.63
2023-01-06T05:53:24.459Z,74087.59
2023-01-06T05:53:59.285Z,74087.59
2023-01-06T05:54:31.496Z,74083.63
2023-01-06T05:55:04.519Z,74083.63
2023-01-06T05:55:39.377Z,74083.63
2023-01-06T05:56:12.617Z,74081.63
2023-01-06T05:56:44.881Z,74089.59
2023-01-06T05:57:20.295Z,74079.63
2023-01-06T05:57:52.516Z,74081.63
2023-01-06T05:58:24.754Z,74079.63
2023-01-06T05:58:59.572Z,74079.63
2023-01-06T05:59:31.803Z,74083.63
2023-01-06T06:00:05.629Z,74081.63
2023-01-06T06:00:46.912Z,74077.63
2023-01-06T06:01:21.066Z,74079.63
2023-01-06T06:01:56.298Z,74079.63
2023-01-06T06:02:28.646Z,74079.63
2023-01-06T06:03:00.869Z,74077.63
2023-01-06T06:03:36.068Z,74073.63
2023-01-06T06:04:08.381Z,74075.63
2023-01-06T06:04:46.576Z,74075.63
2023-01-06T06:05:18.858Z,74075.63
2023-01-06T06:05:51.099Z,74073.63
2023-01-06T06:06:27.938Z,74077.63
2023-01-06T06:07:00.165Z,74075.63
2023-01-06T06:07:32.396Z,74077.63
2023-01-06T06:08:09.288Z,74075.63
2023-01-06T06:08:41.667Z,74075.63
2023-01-06T06:09:16.491Z,74073.63
2023-01-06T06:09:48.880Z,74079.63
2023-01-06T06:10:21.597Z,74075.63
2023-01-06T06:10:56.427Z,74079.63
2023-01-06T06:11:28.666Z,74077.63
2023-01-06T06:12:00.903Z,74079.63
2023-01-06T06:12:36.156Z,74077.63
2023-01-06T06:13:08.451Z,74077.63
2023-01-06T06:13:45.681Z,74079.63
2023-01-06T06:14:20.685Z,74075.63
2023-01-06T06:14:52.939Z,74073.63
2023-01-06T06:15:25.267Z,74077.63
2023-01-06T06:16:07.171Z,74073.63
2023-01-06T06:16:39.433Z,74071.63
2023-01-06T06:17:14.286Z,74073.63
2023-01-06T06:17:46.545Z,74079.63
2023-01-06T06:18:18.895Z,74075.63
2023-01-06T06:18:55.854Z,74073.63
2023-01-06T06:19:28.090Z,74073.63
2023-01-06T06:20:03.452Z,74073.63
2023-01-06T06:20:38.294Z,74075.63
2023-01-06T06:21:11.762Z,74071.63
2023-01-06T06:21:44.059Z,74073.63
2023-01-06T06:22:18.874Z,74075.63
2023-01-06T06:22:51.182Z,74079.63
2023-01-06T06:23:23.411Z,74075.63
2023-01-06T06:23:59.482Z,74079.63
2023-01-06T06:24:31.700Z,74077.63
2023-01-06T06:25:04.201Z,74075.63
2023-01-06T06:25:39.031Z,74079.63
2023-01-06T06:26:12.391Z,74075.63
2023-01-06T06:26:44.711Z,74081.63
2023-01-06T06:27:19.540Z,74079.63
2023-01-06T06:27:51.771Z,74083.63
2023-01-06T06:28:24.425Z,74081.63
2023-01-06T06:28:59.275Z,74087.59
2023-01-06T06:29:31.499Z,74087.59
2023-01-06T06:30:04.090Z,74083.63
2023-01-06T06:30:38.914Z,74089.59
2023-01-06T06:31:12.963Z,74085.59
2023-01-06T06:31:47.853Z,74083.63
2023-01-06T06:32:20.091Z,74083.63
2023-01-06T06:32:52.358Z,74081.63
2023-01-06T06:33:27.228Z,74083.63
2023-01-06T06:34:00.834Z,74083.63
2023-01-06T06:34:35.684Z,74083.63
2023-01-06T06:35:10.681Z,74083.63
2023-01-06T06:35:42.930Z,74081.63
2023-01-06T06:36:18.363Z,74075.63
2023-01-06T06:36:50.651Z,74089.59
2023-01-06T06:37:25.508Z,74079.63
2023-01-06T06:37:57.807Z,74081.63
2023-01-06T06:38:30.468Z,74087.59
2023-01-06T06:39:05.429Z,74087.59
2023-01-06T06:39:37.688Z,74079.63
2023-01-06T06:40:14.036Z,74079.63
2023-01-06T06:40:46.262Z,74083.63
2023-01-06T06:41:19.391Z,74079.63
2023-01-06T06:41:54.236Z,74079.63
2023-01-06T06:42:26.497Z,74085.59
2023-01-06T06:42:58.718Z,74077.63
2023-01-06T06:43:33.567Z,74083.63
2023-01-06T06:44:06.091Z,74079.63
2023-01-06T06:44:40.925Z,74079.63
2023-01-06T06:45:13.149Z,74075.63
2023-01-06T06:45:45.573Z,74077.63
2023-01-06T06:46:21.127Z,74077.63
2023-01-06T06:46:53.412Z,74079.63
2023-01-06T06:47:25.672Z,74077.63
2023-01-06T06:48:00.480Z,74073.63
2023-01-06T06:48:32.763Z,74079.63
2023-01-06T06:49:05.084Z,74081.63
2023-01-06T06:49:39.906Z,74079.63
2023-01-06T06:50:14.738Z,74077.63
2023-01-06T06:50:46.975Z,74079.63
2023-01-06T06:51:23.576Z,74077.63
2023-01-06T06:51:55.895Z,74079.63
2023-01-06T06:52:30.766Z,74075.63
2023-01-06T06:53:02.998Z,74077.63
2023-01-06T06:53:35.823Z,74079.63
2023-01-06T06:54:10.649Z,74081.63
2023-01-06T06:54:42.872Z,74081.63
2023-01-06T06:55:15.114Z,74083.63
2023-01-06T06:55:47.329Z,74081.63
2023-01-06T06:56:23.334Z,74091.59
2023-01-06T06:56:57.100Z,74083.63
2023-01-06T06:57:32.014Z,74083.63
2023-01-06T06:58:04.269Z,74083.63
2023-01-06T06:58:37.635Z,74081.63
2023-01-06T06:59:12.488Z,74083.63
2023-01-06T06:59:44.705Z,74083.63